FBKE

Kasane Airport

Kasane, Botswana
METAR FBKE 201600Z 09003KT CAVOK 27/02 Q1018
Observed Flight Rules
Aug-20 @ 16:00 UTC (4 hours ago) Visual Flight Rules
Wind Visibility Clouds
90° at 3 knots 10,000+ meters
  • Clear skies
Temperatures Readings
Current 27°C / 81°F
Dewpoint 2°C / 36°F
Humidity 20%
Altimeter 30.06" Hg
Pressure 1018 hPa
Elevation 1000
METAR FBKE 201600Z 09003KT CAVOK 27/02 Q1018
Observed Flight Rules
Aug-20 @ 16:00 UTC
(4 hours ago)
VFR
Wind Visibility
90° at 3 knots 10,000+ meters
Clouds
  • Clear skies
Temperature Dewpoint
27°C / 81°F 2°C / 36°F
Humidity Altimeter Pressure
20% 30.06" Hg 1018 hPa